Time;durP1;ratioP1;P1;durP2;ratioP2;P2;SDS_P1;SDS_P2;PMS_P1;PMS_P2;Temp;Humidity;BMP_temperature;BMP_pressure;BME280_temperature;BME280_humidity;BME280_pressure;Samples;Min_cycle;Max_cycle;Signal;HPM_P1;HPM_P2
2022/04/20 00:02:32;;;;;;;5.72;5.13;;;;;;;;;;4979159;28;20058;-87
2022/04/20 00:05:00;;;;;;;6.32;4.90;;;;;;;;;;4980561;28;20038;-86
2022/04/20 00:07:27;;;;;;;5.75;4.40;;;;;;;;;;4950654;28;20045;-86
2022/04/20 00:12:49;;;;;;;4.20;3.90;;;;;;;;;;4987319;28;20045;-75
2022/04/20 00:15:17;;;;;;;3.72;3.42;;;;;;;;;;4968581;28;20096;-73
2022/04/20 00:17:44;;;;;;;4.35;4.05;;;;;;;;;;4963529;28;20053;-74
2022/04/20 00:20:11;;;;;;;3.97;3.67;;;;;;;;;;4967991;28;20060;-74
2022/04/20 00:22:39;;;;;;;4.10;3.78;;;;;;;;;;4962170;28;20054;-75
2022/04/20 00:25:06;;;;;;;3.95;3.65;;;;;;;;;;4970421;28;20038;-75
2022/04/20 00:27:37;;;;;;;3.88;3.35;;;;;;;;;;4970266;28;20046;-75
2022/04/20 00:30:09;;;;;;;8.02;4.60;;;;;;;;;;4976607;28;20124;-75
2022/04/20 00:32:37;;;;;;;;;;;;;;;;;;4973043;28;20521;-74
2022/04/20 00:35:04;;;;;;;4.20;3.80;;;;;;;;;;4973376;28;19933;-74
2022/04/20 00:37:33;;;;;;;5.13;4.50;;;;;;;;;;4963923;28;20050;-75
2022/04/20 00:40:00;;;;;;;3.85;3.55;;;;;;;;;;4969299;28;20047;-74
2022/04/20 00:42:29;;;;;;;4.45;4.10;;;;;;;;;;4966868;28;20034;-72
2022/04/20 00:44:57;;;;;;;4.63;4.20;;;;;;;;;;4946437;28;20050;-73
2022/04/20 00:47:25;;;;;;;4.85;4.35;;;;;;;;;;4968353;28;20046;-74
2022/04/20 00:49:54;;;;;;;4.85;4.47;;;;;;;;;;4967426;28;20499;-73
2022/04/20 00:52:21;;;;;;;4.60;4.20;;;;;;;;;;4954267;28;20052;-73
2022/04/20 00:55:11;;;;;;;4.80;4.30;;;;;;;;;;4970917;28;20388;-75
2022/04/20 00:57:39;;;;;;;4.80;4.30;;;;;;;;;;4966198;28;20042;-72
2022/04/20 01:00:09;;;;;;;5.03;4.63;;;;;;;;;;4968947;28;20043;-74
2022/04/20 01:02:42;;;;;;;6.95;5.85;;;;;;;;;;4964961;28;20039;-74
2022/04/20 01:05:10;;;;;;;5.28;4.43;;;;;;;;;;4946499;28;20054;-74
2022/04/20 01:08:04;;;;;;;5.22;4.80;;;;;;;;;;4947061;28;20038;-74
2022/04/20 01:10:50;;;;;;;5.35;4.85;;;;;;;;;;4967347;28;20415;-73
2022/04/20 01:13:36;;;;;;;4.93;4.55;;;;;;;;;;4982596;28;20050;-74
2022/04/20 01:16:33;;;;;;;5.05;4.47;;;;;;;;;;4989648;28;20056;-74
2022/04/20 01:19:15;;;;;;;5.13;4.63;;;;;;;;;;4982695;28;20050;-74
2022/04/20 01:22:01;;;;;;;5.13;4.63;;;;;;;;;;4969321;28;20093;-74
2022/04/20 01:24:52;;;;;;;4.90;4.50;;;;;;;;;;4955575;28;20081;-75
2022/04/20 01:27:36;;;;;;;4.50;4.20;;;;;;;;;;4970616;28;20038;-73
2022/04/20 01:30:42;;;;;;;4.43;4.05;;;;;;;;;;4963005;28;20053;-73
2022/04/20 01:33:24;;;;;;;4.20;3.90;;;;;;;;;;4971848;28;20101;-74
2022/04/20 01:35:52;;;;;;;4.78;4.38;;;;;;;;;;4967980;28;20043;-75
2022/04/20 01:38:20;;;;;;;4.88;4.32;;;;;;;;;;4977488;28;20042;-72
2022/04/20 01:40:48;;;;;;;4.35;3.95;;;;;;;;;;4979149;28;20125;-74
2022/04/20 01:43:15;;;;;;;4.95;4.55;;;;;;;;;;4979965;28;20046;-74
2022/04/20 01:45:59;;;;;;;6.15;5.65;;;;;;;;;;4951760;28;20047;-74
2022/04/20 01:48:59;;;;;;;6.35;5.07;;;;;;;;;;4956039;28;20063;-73
2022/04/20 01:51:52;;;;;;;6.10;5.53;;;;;;;;;;4974811;28;20152;-72
2022/04/20 01:54:38;;;;;;;5.03;4.63;;;;;;;;;;4978614;28;20117;-75
2022/04/20 01:57:18;;;;;;;4.07;3.78;;;;;;;;;;4975752;28;20042;-75
2022/04/20 02:00:21;;;;;;;5.68;5.18;;;;;;;;;;4961400;28;20109;-74
2022/04/20 02:03:14;;;;;;;5.80;5.15;;;;;;;;;;4977552;28;20054;-74
2022/04/20 02:05:58;;;;;;;5.20;4.80;;;;;;;;;;4953557;28;20035;-74
2022/04/20 02:09:01;;;;;;;6.30;5.80;;;;;;;;;;4967815;28;20176;-73
2022/04/20 02:11:41;;;;;;;6.65;6.05;;;;;;;;;;4977942;28;20399;-75
2022/04/20 02:14:17;;;;;;;6.28;5.68;;;;;;;;;;4950931;28;20806;-75
2022/04/20 02:16:52;;;;;;;6.65;6.05;;;;;;;;;;4973601;28;20129;-75
2022/04/20 02:19:42;;;;;;;6.38;5.88;;;;;;;;;;4978299;28;20485;-73
2022/04/20 02:22:14;;;;;;;6.50;5.90;;;;;;;;;;4971160;28;20521;-74
2022/04/20 02:24:41;;;;;;;6.95;6.32;;;;;;;;;;4966833;28;20038;-75
2022/04/20 02:27:09;;;;;;;8.25;7.55;;;;;;;;;;4981708;28;20043;-74
2022/04/20 02:29:38;;;;;;;9.30;8.35;;;;;;;;;;4979530;28;20129;-74
2022/04/20 02:32:07;;;;;;;8.35;7.55;;;;;;;;;;4970888;28;20065;-74
2022/04/20 02:34:34;;;;;;;7.60;6.88;;;;;;;;;;4971538;28;20042;-75
2022/04/20 02:37:03;;;;;;;9.45;7.93;;;;;;;;;;4976848;28;20034;-74
2022/04/20 02:39:30;;;;;;;7.63;6.63;;;;;;;;;;4968756;28;20039;-73
2022/04/20 02:42:00;;;;;;;8.88;8.05;;;;;;;;;;4944124;28;20039;-74
2022/04/20 02:44:27;;;;;;;7.43;6.25;;;;;;;;;;4984494;28;20392;-72
2022/04/20 02:46:55;;;;;;;7.43;6.72;;;;;;;;;;4973815;28;20050;-75
2022/04/20 02:49:23;;;;;;;7.97;7.00;;;;;;;;;;4980374;28;20066;-74
2022/04/20 02:51:50;;;;;;;8.63;6.97;;;;;;;;;;4954691;28;20046;-74
2022/04/20 02:54:18;;;;;;;9.10;8.20;;;;;;;;;;4977520;28;20042;-75
2022/04/20 02:56:46;;;;;;;8.73;7.93;;;;;;;;;;4982533;28;20058;-75
2022/04/20 02:59:14;;;;;;;9.45;8.55;;;;;;;;;;4983185;28;23059;-75
2022/04/20 03:01:41;;;;;;;9.68;8.77;;;;;;;;;;4968235;28;20108;-75
2022/04/20 03:04:14;;;;;;;6.97;6.38;;;;;;;;;;4986437;28;20034;-74
2022/04/20 03:06:41;;;;;;;8.27;7.57;;;;;;;;;;4976466;28;20065;-75
2022/04/20 03:09:17;;;;;;;8.63;7.82;;;;;;;;;;4982803;28;20053;-73
2022/04/20 03:11:44;;;;;;;6.85;6.25;;;;;;;;;;4967617;28;20039;-75
2022/04/20 03:14:13;;;;;;;9.32;7.32;;;;;;;;;;4986863;28;20351;-73
2022/04/20 03:16:43;;;;;;;10.63;7.70;;;;;;;;;;4982328;28;20052;-76
2022/04/20 03:19:13;;;;;;;13.57;8.98;;;;;;;;;;4984329;28;20042;-76
2022/04/20 03:21:43;;;;;;;14.93;8.27;;;;;;;;;;4971164;28;20126;-75
2022/04/20 03:24:11;;;;;;;6.47;5.88;;;;;;;;;;4973988;28;20038;-76
2022/04/20 03:27:03;;;;;;;9.93;8.85;;;;;;;;;;4977903;28;20522;-75
2022/04/20 03:29:41;;;;;;;8.60;7.85;;;;;;;;;;4968879;28;20034;-75
2022/04/20 03:32:10;;;;;;;17.33;7.40;;;;;;;;;;4978879;28;20034;-75
2022/04/20 03:34:40;;;;;;;7.45;6.60;;;;;;;;;;4979794;28;20054;-75
2022/04/20 03:37:08;;;;;;;9.10;8.25;;;;;;;;;;4985151;28;20046;-75
2022/04/20 03:39:39;;;;;;;10.90;8.18;;;;;;;;;;4974060;28;20042;-73
2022/04/20 03:42:07;;;;;;;8.45;7.70;;;;;;;;;;4984074;28;20074;-75
2022/04/20 03:44:36;;;;;;;9.23;8.32;;;;;;;;;;4986730;28;20057;-75
2022/04/20 03:47:04;;;;;;;9.13;8.32;;;;;;;;;;4984106;28;20042;-75
2022/04/20 03:49:31;;;;;;;7.88;6.72;;;;;;;;;;4949523;28;20437;-73
2022/04/20 03:52:01;;;;;;;9.80;8.50;;;;;;;;;;4967752;28;20043;-75
2022/04/20 03:54:32;;;;;;;9.07;8.18;;;;;;;;;;4984062;28;20576;-73
2022/04/20 03:57:07;;;;;;;12.23;8.65;;;;;;;;;;4982943;28;20462;-74
2022/04/20 03:59:40;;;;;;;9.95;8.95;;;;;;;;;;4977460;28;20065;-74
2022/04/20 04:02:08;;;;;;;11.27;9.30;;;;;;;;;;4974455;28;20046;-75
2022/04/20 04:04:42;;;;;;;10.25;9.18;;;;;;;;;;4977456;28;20034;-74
2022/04/20 04:07:21;;;;;;;11.70;10.35;;;;;;;;;;4977005;28;20041;-75
2022/04/20 04:09:48;;;;;;;10.07;8.65;;;;;;;;;;4971702;28;20110;-73
2022/04/20 04:12:16;;;;;;;13.20;9.35;;;;;;;;;;4978029;28;20050;-76
2022/04/20 04:14:49;;;;;;;9.30;8.38;;;;;;;;;;4973633;28;20196;-75
2022/04/20 04:17:17;;;;;;;12.52;9.68;;;;;;;;;;4979216;28;20070;-74
2022/04/20 04:19:46;;;;;;;8.48;7.68;;;;;;;;;;4968122;28;20045;-75
2022/04/20 04:22:14;;;;;;;10.73;9.73;;;;;;;;;;4972526;28;20062;-74
2022/04/20 04:24:54;;;;;;;8.40;7.60;;;;;;;;;;4968769;28;20045;-74
2022/04/20 04:27:22;;;;;;;9.32;7.57;;;;;;;;;;4964847;28;20081;-73
2022/04/20 04:29:50;;;;;;;9.80;7.68;;;;;;;;;;4968757;28;20109;-74
2022/04/20 04:32:17;;;;;;;8.77;7.72;;;;;;;;;;4971312;28;20093;-73
2022/04/20 04:34:45;;;;;;;11.77;10.27;;;;;;;;;;4977288;28;20609;-75
2022/04/20 04:37:14;;;;;;;16.42;9.60;;;;;;;;;;4972395;28;20505;-74
2022/04/20 04:39:46;;;;;;;18.95;10.05;;;;;;;;;;4976682;28;20244;-73
2022/04/20 04:42:13;;;;;;;8.48;6.88;;;;;;;;;;4958527;28;20522;-74
2022/04/20 04:44:41;;;;;;;6.82;6.05;;;;;;;;;;4979257;28;20121;-73
2022/04/20 04:50:00;;;;;;;13.18;10.23;;;;;;;;;;4954069;28;20534;-73
2022/04/20 04:52:30;;;;;;;11.63;7.80;;;;;;;;;;4993108;28;20514;-75
2022/04/20 04:55:02;;;;;;;11.70;8.77;;;;;;;;;;4954781;28;20480;-75
2022/04/20 04:57:33;;;;;;;10.75;9.68;;;;;;;;;;4984589;28;20149;-74
2022/04/20 05:00:00;;;;;;;21.75;7.78;;;;;;;;;;4982257;28;20043;-75
2022/04/20 05:02:28;;;;;;;9.82;8.82;;;;;;;;;;4986205;28;20062;-75
2022/04/20 05:04:56;;;;;;;28.33;8.65;;;;;;;;;;4976958;28;20130;-75
2022/04/20 05:07:29;;;;;;;11.73;8.07;;;;;;;;;;4979785;28;20039;-72
2022/04/20 05:10:05;;;;;;;12.80;10.07;;;;;;;;;;4973598;28;20038;-74
2022/04/20 05:12:35;;;;;;;7.45;6.75;;;;;;;;;;4976173;28;20471;-75
2022/04/20 05:15:04;;;;;;;10.55;8.93;;;;;;;;;;4978557;28;20424;-74
2022/04/20 05:17:32;;;;;;;10.23;9.27;;;;;;;;;;4953495;28;20568;-75
2022/04/20 05:20:00;;;;;;;8.88;8.07;;;;;;;;;;4954196;28;20399;-74
2022/04/20 05:22:28;;;;;;;11.57;10.38;;;;;;;;;;4970685;28;20042;-75
2022/04/20 05:24:57;;;;;;;11.60;10.27;;;;;;;;;;4969777;28;20049;-73
2022/04/20 05:27:25;;;;;;;8.57;7.70;;;;;;;;;;4960911;28;20039;-75
2022/04/20 05:29:55;;;;;;;10.85;9.75;;;;;;;;;;4970471;28;20039;-74
2022/04/20 05:32:24;;;;;;;10.63;9.55;;;;;;;;;;4964143;28;20114;-75
2022/04/20 05:34:52;;;;;;;9.27;8.07;;;;;;;;;;4981234;28;20418;-75
2022/04/20 05:42:56;;;;;;;11.02;8.60;;;;;;;;;;4970876;28;20034;-74
2022/04/20 05:45:24;;;;;;;9.25;8.45;;;;;;;;;;4969668;28;20038;-72
2022/04/20 05:48:06;;;;;;;8.82;8.02;;;;;;;;;;4969238;28;20446;-73
2022/04/20 05:50:33;;;;;;;10.07;8.27;;;;;;;;;;4970622;28;20133;-77
2022/04/20 05:53:01;;;;;;;9.48;8.45;;;;;;;;;;4971258;28;20045;-74
2022/04/20 05:55:28;;;;;;;9.38;8.45;;;;;;;;;;4965522;28;20049;-74
2022/04/20 05:57:56;;;;;;;9.77;8.80;;;;;;;;;;4970631;28;20112;-75
2022/04/20 06:00:23;;;;;;;13.20;8.90;;;;;;;;;;4961086;28;20038;-73
2022/04/20 06:03:13;;;;;;;10.07;9.07;;;;;;;;;;4957863;28;20047;-73
2022/04/20 06:05:41;;;;;;;9.48;8.48;;;;;;;;;;4973666;28;20462;-73
2022/04/20 06:08:38;;;;;;;11.35;10.27;;;;;;;;;;4934309;28;20394;-75
2022/04/20 06:11:24;;;;;;;10.15;8.38;;;;;;;;;;4957910;28;20049;-75
2022/04/20 06:13:51;;;;;;;10.93;9.93;;;;;;;;;;4967893;28;20050;-74
2022/04/20 06:16:28;;;;;;;8.98;7.90;;;;;;;;;;4965287;28;20074;-73
2022/04/20 06:19:09;;;;;;;8.15;7.35;;;;;;;;;;4955323;28;20097;-75
2022/04/20 06:21:51;;;;;;;8.15;7.35;;;;;;;;;;4963483;28;20034;-75
2022/04/20 06:24:21;;;;;;;9.60;8.65;;;;;;;;;;4980675;28;20368;-75
2022/04/20 06:26:55;;;;;;;9.57;8.52;;;;;;;;;;4948972;28;20354;-75
2022/04/20 06:29:37;;;;;;;10.05;9.07;;;;;;;;;;4948190;28;20046;-73
2022/04/20 06:32:25;;;;;;;10.85;9.38;;;;;;;;;;4992145;23;20086;-82
2022/04/20 06:35:11;;;;;;;9.80;8.82;;;;;;;;;;4988642;28;20205;-79
2022/04/20 06:37:50;;;;;;;13.77;12.45;;;;;;;;;;4976023;28;20054;-80
2022/04/20 06:40:36;;;;;;;17.10;15.25;;;;;;;;;;4992802;28;20050;-78
2022/04/20 06:43:22;;;;;;;14.35;12.00;;;;;;;;;;4991365;28;20099;-79
2022/04/20 06:46:05;;;;;;;13.13;11.90;;;;;;;;;;4975261;28;20083;-82
2022/04/20 06:48:53;;;;;;;11.70;10.60;;;;;;;;;;4968175;28;20152;-77
2022/04/20 07:00:09;;;;;;;9.98;9.07;;;;;;;;;;4984762;28;20038;-77
2022/04/20 07:02:59;;;;;;;12.25;10.48;;;;;;;;;;5008987;28;20117;-76
2022/04/20 07:05:45;;;;;;;11.70;10.50;;;;;;;;;;4968786;28;20375;-79
2022/04/20 07:08:32;;;;;;;18.63;12.40;;;;;;;;;;4980546;28;20038;-79
2022/04/20 07:11:13;;;;;;;12.10;10.50;;;;;;;;;;4986539;28;20099;-77
2022/04/20 07:13:43;;;;;;;10.60;9.57;;;;;;;;;;4985509;28;20568;-79
2022/04/20 07:16:10;;;;;;;11.95;10.85;;;;;;;;;;4982779;28;20043;-81
2022/04/20 07:18:41;;;;;;;17.95;10.30;;;;;;;;;;4963529;28;20489;-80
2022/04/20 07:21:34;;;;;;;10.90;9.85;;;;;;;;;;4996533;28;20323;-78
2022/04/20 07:24:28;;;;;;;11.10;9.88;;;;;;;;;;4972238;28;20133;-76
2022/04/20 07:26:58;;;;;;;11.48;10.10;;;;;;;;;;5005413;28;20034;-77
2022/04/20 07:29:32;;;;;;;15.75;9.25;;;;;;;;;;4992466;28;20037;-77
2022/04/20 07:32:11;;;;;;;9.50;8.60;;;;;;;;;;4984493;28;20038;-82
2022/04/20 07:34:51;;;;;;;10.43;9.35;;;;;;;;;;4995933;28;20049;-77
2022/04/20 07:37:41;;;;;;;9.63;8.73;;;;;;;;;;4984186;28;20046;-81
2022/04/20 07:40:27;;;;;;;11.85;9.70;;;;;;;;;;4982283;28;20133;-79
2022/04/20 07:43:01;;;;;;;22.83;12.43;;;;;;;;;;5003590;28;20537;-77
2022/04/20 07:45:39;;;;;;;16.45;14.75;;;;;;;;;;4982334;28;20401;-77
2022/04/20 07:48:30;;;;;;;11.30;9.85;;;;;;;;;;4982959;28;20038;-82
2022/04/20 07:51:17;;;;;;;10.15;9.15;;;;;;;;;;5008422;28;20048;-84
2022/04/20 07:54:22;;;;;;;10.07;9.07;;;;;;;;;;5015801;28;20532;-78
2022/04/20 07:57:16;;;;;;;9.45;8.55;;;;;;;;;;4982946;28;20421;-78
2022/04/20 08:00:09;;;;;;;9.27;8.38;;;;;;;;;;4990024;28;20099;-78
2022/04/20 08:02:39;;;;;;;8.85;8.05;;;;;;;;;;4971717;28;20394;-77
2022/04/20 08:05:14;;;;;;;8.65;7.70;;;;;;;;;;4990083;28;20037;-80
2022/04/20 08:07:42;;;;;;;8.23;7.53;;;;;;;;;;4967373;28;20061;-79
2022/04/20 08:10:10;;;;;;;7.93;7.22;;;;;;;;;;4985695;28;20065;-78
2022/04/20 08:12:43;;;;;;;7.32;6.72;;;;;;;;;;4978986;28;20054;-79
2022/04/20 08:15:21;;;;;;;5.75;5.15;;;;;;;;;;4988325;28;20057;-77
2022/04/20 08:17:51;;;;;;;5.85;5.45;;;;;;;;;;4986909;28;20399;-77
2022/04/20 08:20:48;;;;;;;4.40;4.10;;;;;;;;;;4945124;28;20110;-79
2022/04/20 08:23:16;;;;;;;4.78;4.40;;;;;;;;;;4989965;28;20082;-79
2022/04/20 08:25:43;;;;;;;4.35;4.05;;;;;;;;;;5006326;28;21640;-77
2022/04/20 08:28:11;;;;;;;3.92;3.63;;;;;;;;;;4996214;28;20069;-77
2022/04/20 08:30:39;;;;;;;3.45;3.20;;;;;;;;;;4972440;28;20038;-79
2022/04/20 08:33:08;;;;;;;2.90;2.70;;;;;;;;;;4986537;28;20400;-81
2022/04/20 08:35:36;;;;;;;2.75;2.58;;;;;;;;;;5006430;28;20137;-76
2022/04/20 08:38:06;;;;;;;2.75;2.55;;;;;;;;;;4982325;28;20057;-80
2022/04/20 08:40:36;;;;;;;3.13;2.90;;;;;;;;;;5011966;28;20044;-80
2022/04/20 08:43:07;;;;;;;3.33;3.03;;;;;;;;;;4976602;28;20080;-83
2022/04/20 08:45:37;;;;;;;3.05;2.85;;;;;;;;;;4981695;28;20133;-77
2022/04/20 08:48:06;;;;;;;3.75;3.40;;;;;;;;;;4995281;28;20072;-81
2022/04/20 08:50:34;;;;;;;3.47;3.13;;;;;;;;;;4992579;28;20303;-81
2022/04/20 08:53:02;;;;;;;3.42;3.05;;;;;;;;;;4986491;28;20664;-79
2022/04/20 08:55:30;;;;;;;3.35;3.05;;;;;;;;;;4982543;28;20054;-80
2022/04/20 08:57:57;;;;;;;4.63;3.40;;;;;;;;;;4977943;28;20052;-76
2022/04/20 09:00:27;;;;;;;3.22;3.03;;;;;;;;;;4997873;28;20490;-80
2022/04/20 09:03:00;;;;;;;3.20;3.00;;;;;;;;;;4951002;28;20339;-83
2022/04/20 09:05:29;;;;;;;3.15;2.95;;;;;;;;;;4983553;28;20072;-80
2022/04/20 09:07:57;;;;;;;2.70;2.50;;;;;;;;;;4987971;28;20073;-82
2022/04/20 09:10:26;;;;;;;3.63;3.30;;;;;;;;;;4985314;28;20052;-78
2022/04/20 09:13:15;;;;;;;3.95;3.42;;;;;;;;;;4987291;28;20046;-78
2022/04/20 09:15:50;;;;;;;3.42;3.15;;;;;;;;;;4990059;28;20092;-77
2022/04/20 09:18:22;;;;;;;4.30;3.13;;;;;;;;;;4983721;28;20041;-84
2022/04/20 09:20:50;;;;;;;3.15;2.95;;;;;;;;;;5003766;28;20073;-79
2022/04/20 09:23:29;;;;;;;3.45;3.20;;;;;;;;;;4990820;28;20457;-82
2022/04/20 09:25:56;;;;;;;3.33;3.08;;;;;;;;;;4984344;28;20053;-79
2022/04/20 09:28:25;;;;;;;3.40;3.10;;;;;;;;;;4970781;28;20056;-83
2022/04/20 09:30:55;;;;;;;3.40;3.20;;;;;;;;;;4969435;28;20136;-83
2022/04/20 09:33:40;;;;;;;3.10;2.90;;;;;;;;;;4976812;28;20127;-82
2022/04/20 09:36:08;;;;;;;11.35;10.25;;;;;;;;;;4994798;28;20485;-78
2022/04/20 09:38:41;;;;;;;3.85;3.47;;;;;;;;;;4982664;28;20137;-78
2022/04/20 09:41:12;;;;;;;4.95;4.00;;;;;;;;;;4977053;28;20841;-78
2022/04/20 09:43:40;;;;;;;5.47;4.95;;;;;;;;;;4984932;28;20510;-78
2022/04/20 09:48:50;;;;;;;3.53;3.22;;;;;;;;;;4981251;28;20049;-80
2022/04/20 09:49:16;;;;;;;4.47;4.07;;;;;;;;;;4984371;28;20077;-76
2022/04/20 09:51:44;;;;;;;4.40;4.07;;;;;;;;;;5000515;28;20503;-77
2022/04/20 09:54:26;;;;;;;3.78;3.47;;;;;;;;;;4980569;28;20120;-80
2022/04/20 09:57:11;;;;;;;4.05;3.20;;;;;;;;;;4983183;28;20143;-82
2022/04/20 09:59:54;;;;;;;3.80;3.50;;;;;;;;;;4956810;28;20123;-82
2022/04/20 10:02:46;;;;;;;3.47;3.10;;;;;;;;;;4983337;28;20037;-79
2022/04/20 10:05:17;;;;;;;3.55;3.28;;;;;;;;;;4982430;28;20507;-80
2022/04/20 10:07:51;;;;;;;3.30;3.10;;;;;;;;;;4998261;28;20046;-80
2022/04/20 10:10:19;;;;;;;3.45;3.15;;;;;;;;;;4988950;28;20466;-80
2022/04/20 10:12:51;;;;;;;3.63;2.83;;;;;;;;;;4978453;28;20041;-81
2022/04/20 10:18:05;;;;;;;3.10;2.90;;;;;;;;;;4981856;28;20579;-79
2022/04/20 10:20:34;;;;;;;7.07;6.13;;;;;;;;;;4985523;28;20600;-78
2022/04/20 10:23:05;;;;;;;28.40;23.02;;;;;;;;;;4956340;28;20049;-77
2022/04/20 10:25:33;;;;;;;32.23;26.00;;;;;;;;;;4980469;28;20042;-78
2022/04/20 10:28:07;;;;;;;10.50;9.25;;;;;;;;;;4976925;28;20149;-81
2022/04/20 10:30:41;;;;;;;20.83;18.63;;;;;;;;;;4973221;28;20077;-80
2022/04/20 10:33:09;;;;;;;6.70;6.10;;;;;;;;;;4962922;28;20050;-82
2022/04/20 10:35:55;;;;;;;3.42;3.22;;;;;;;;;;4962756;28;20057;-79
2022/04/20 10:38:23;;;;;;;3.25;3.05;;;;;;;;;;4988900;28;20057;-77
2022/04/20 10:41:07;;;;;;;3.30;3.10;;;;;;;;;;4967448;28;20053;-82
2022/04/20 10:43:35;;;;;;;3.33;3.05;;;;;;;;;;4980111;28;20045;-84
2022/04/20 10:46:04;;;;;;;3.40;3.10;;;;;;;;;;4974992;28;20136;-82
2022/04/20 10:48:49;;;;;;;2.42;2.33;;;;;;;;;;5010751;28;20048;-78
2022/04/20 10:51:18;;;;;;;3.00;2.72;;;;;;;;;;4976034;28;20042;-83
2022/04/20 10:53:48;;;;;;;2.72;2.60;;;;;;;;;;4999114;28;20141;-79
2022/04/20 10:56:19;;;;;;;5.63;3.10;;;;;;;;;;4978429;28;20063;-78
2022/04/20 10:58:53;;;;;;;2.38;2.20;;;;;;;;;;5002861;28;20046;-82
2022/04/20 11:01:21;;;;;;;3.38;3.10;;;;;;;;;;4968867;28;20111;-83
2022/04/20 11:04:01;;;;;;;2.40;2.30;;;;;;;;;;4985402;28;20046;-81
2022/04/20 11:06:29;;;;;;;2.72;2.63;;;;;;;;;;4981236;28;20164;-83
2022/04/20 11:09:00;;;;;;;2.75;2.42;;;;;;;;;;4997917;28;20560;-82
2022/04/20 11:20:48;;;;;;;2.78;2.63;;;;;;;;;;4975277;28;20054;-81
2022/04/20 11:23:20;;;;;;;2.60;2.40;;;;;;;;;;4968148;28;20061;-83
2022/04/20 11:25:50;;;;;;;2.50;2.40;;;;;;;;;;4974566;28;20042;-80
2022/04/20 11:28:18;;;;;;;4.70;2.45;;;;;;;;;;4986510;28;20047;-80
2022/04/20 11:30:46;;;;;;;2.08;1.98;;;;;;;;;;4989596;28;20129;-86
2022/04/20 11:33:14;;;;;;;2.40;2.30;;;;;;;;;;4978105;28;20042;-83
2022/04/20 11:35:56;;;;;;;2.30;2.20;;;;;;;;;;4972955;28;20042;-81
2022/04/20 11:38:36;;;;;;;2.40;2.20;;;;;;;;;;4984655;28;20120;-84
2022/04/20 11:41:05;;;;;;;2.45;2.28;;;;;;;;;;4989419;28;20050;-84
2022/04/20 11:43:33;;;;;;;2.60;2.50;;;;;;;;;;4996409;28;20054;-79
2022/04/20 11:46:09;;;;;;;4.70;4.20;;;;;;;;;;4983946;28;20049;-80
2022/04/20 11:48:37;;;;;;;8.75;4.95;;;;;;;;;;4981906;28;20119;-83
2022/04/20 11:51:09;;;;;;;2.05;1.95;;;;;;;;;;4977198;28;20045;-81
2022/04/20 11:53:42;;;;;;;2.40;2.28;;;;;;;;;;4999743;28;20034;-83
2022/04/20 11:56:18;;;;;;;55.80;19.85;;;;;;;;;;4975234;28;20065;-80
2022/04/20 11:58:49;;;;;;;42.97;14.52;;;;;;;;;;4941832;28;20052;-81
2022/04/20 12:01:17;;;;;;;;;;;;;;;;;;4979787;28;20314;-82
2022/04/20 12:03:50;;;;;;;3.50;3.20;;;;;;;;;;4969992;28;19925;-80
2022/04/20 12:06:34;;;;;;;2.60;2.40;;;;;;;;;;4963878;28;20454;-78
2022/04/20 12:09:02;;;;;;;2.30;2.20;;;;;;;;;;4949878;28;20049;-83
2022/04/20 12:11:32;;;;;;;2.30;2.10;;;;;;;;;;4959863;28;20042;-83
2022/04/20 12:14:04;;;;;;;2.00;1.90;;;;;;;;;;4979780;28;20052;-82
2022/04/20 12:16:32;;;;;;;;;;;;;;;;;;4991697;28;20096;-82
2022/04/20 12:19:00;;;;;;;2.58;2.22;;;;;;;;;;4980431;28;20063;-83
2022/04/20 12:21:40;;;;;;;2.85;2.20;;;;;;;;;;4968517;28;20045;-84
2022/04/20 12:24:21;;;;;;;2.00;1.90;;;;;;;;;;4978051;28;20077;-80
2022/04/20 12:26:53;;;;;;;6.93;5.28;;;;;;;;;;4971853;28;20422;-80
2022/04/20 12:29:23;;;;;;;5.22;3.08;;;;;;;;;;4978424;28;20061;-83
2022/04/20 12:31:54;;;;;;;3.30;2.40;;;;;;;;;;4964266;28;20053;-86
2022/04/20 12:34:24;;;;;;;2.25;2.15;;;;;;;;;;4963143;28;20418;-81
2022/04/20 12:36:54;;;;;;;2.22;2.13;;;;;;;;;;4972560;28;20104;-82
2022/04/20 12:39:29;;;;;;;1.98;1.88;;;;;;;;;;4977520;28;20048;-84
2022/04/20 12:41:58;;;;;;;2.45;2.17;;;;;;;;;;4976237;28;20046;-78
2022/04/20 12:44:39;;;;;;;2.40;2.30;;;;;;;;;;4980218;28;20045;-82
2022/04/20 12:47:12;;;;;;;2.40;2.30;;;;;;;;;;4989859;28;20574;-82
2022/04/20 12:49:39;;;;;;;2.13;2.03;;;;;;;;;;4985722;28;20128;-77
2022/04/20 12:52:14;;;;;;;3.20;2.92;;;;;;;;;;4988950;28;20343;-81
2022/04/20 12:55:03;;;;;;;2.83;2.10;;;;;;;;;;4993354;28;20038;-82
2022/04/20 13:03:09;;;;;;;1.90;1.80;;;;;;;;;;4980264;28;20046;-81
2022/04/20 13:05:42;;;;;;;2.00;1.90;;;;;;;;;;5000990;28;20048;-81
2022/04/20 13:08:10;;;;;;;2.45;2.20;;;;;;;;;;4979540;28;20046;-81
2022/04/20 13:10:39;;;;;;;1.55;1.55;;;;;;;;;;4986080;28;20082;-79
2022/04/20 13:13:07;;;;;;;1.92;1.83;;;;;;;;;;4965338;28;20119;-79
2022/04/20 13:15:43;;;;;;;1.88;1.77;;;;;;;;;;4963491;28;20172;-80
2022/04/20 13:18:11;;;;;;;5.55;1.85;;;;;;;;;;4962086;28;20064;-84
2022/04/20 13:20:38;;;;;;;1.73;1.70;;;;;;;;;;5000023;28;20056;-76
2022/04/20 13:23:06;;;;;;;1.55;1.45;;;;;;;;;;4978598;28;20049;-78
2022/04/20 13:28:20;;;;;;;1.77;1.67;;;;;;;;;;4997949;28;20556;-83
2022/04/20 13:30:47;;;;;;;2.78;2.05;;;;;;;;;;4985453;28;20130;-80
2022/04/20 13:33:15;;;;;;;2.10;2.00;;;;;;;;;;4984180;28;20065;-78
2022/04/20 13:35:43;;;;;;;2.13;2.03;;;;;;;;;;4992477;28;20121;-83
2022/04/20 13:38:11;;;;;;;1.70;1.60;;;;;;;;;;4979681;28;20042;-82
2022/04/20 13:40:40;;;;;;;2.22;2.13;;;;;;;;;;4959451;28;20151;-85
2022/04/20 13:43:07;;;;;;;1.92;1.90;;;;;;;;;;4968056;28;20128;-83
2022/04/20 13:45:35;;;;;;;2.10;1.33;;;;;;;;;;4973878;28;20046;-84
2022/04/20 13:48:02;;;;;;;1.38;1.38;;;;;;;;;;5001728;28;20181;-78
2022/04/20 13:50:30;;;;;;;1.70;1.60;;;;;;;;;;5003225;28;20061;-80
2022/04/20 13:52:59;;;;;;;1.80;1.70;;;;;;;;;;4998839;28;20061;-83
2022/04/20 13:55:26;;;;;;;1.67;1.60;;;;;;;;;;5004474;28;20053;-80
2022/04/20 13:57:54;;;;;;;1.80;1.70;;;;;;;;;;4995027;28;20506;-84
2022/04/20 14:00:22;;;;;;;2.55;1.73;;;;;;;;;;4983036;28;20149;-81
2022/04/20 14:02:49;;;;;;;1.80;1.70;;;;;;;;;;4975187;28;20042;-80
2022/04/20 14:05:17;;;;;;;1.80;1.70;;;;;;;;;;4961463;28;22220;-82
2022/04/20 14:07:44;;;;;;;3.28;2.03;;;;;;;;;;4966982;28;20082;-80
2022/04/20 14:10:12;;;;;;;1.75;1.65;;;;;;;;;;4994324;28;20038;-81
2022/04/20 14:12:40;;;;;;;1.45;1.45;;;;;;;;;;4956652;28;20072;-80
2022/04/20 14:15:08;;;;;;;2.53;2.00;;;;;;;;;;4964169;28;20049;-78
2022/04/20 14:17:36;;;;;;;1.83;1.73;;;;;;;;;;4983368;28;20405;-79
2022/04/20 14:20:04;;;;;;;1.80;1.70;;;;;;;;;;4965255;28;20057;-77
2022/04/20 14:22:50;;;;;;;2.67;2.47;;;;;;;;;;5003250;28;20054;-78
2022/04/20 14:33:36;;;;;;;5.63;2.10;;;;;;;;;;4978552;28;20136;-78
2022/04/20 14:36:04;;;;;;;1.60;1.60;;;;;;;;;;4986120;28;20136;-78
2022/04/20 14:38:33;;;;;;;1.73;1.63;;;;;;;;;;4969519;28;20049;-78
2022/04/20 14:41:00;;;;;;;1.80;1.70;;;;;;;;;;4966653;28;20049;-77
2022/04/20 14:43:28;;;;;;;2.17;1.98;;;;;;;;;;4969195;28;20054;-77
2022/04/20 14:45:55;;;;;;;2.00;1.90;;;;;;;;;;4984543;28;20426;-78
2022/04/20 14:48:22;;;;;;;1.40;1.30;;;;;;;;;;4976734;28;20054;-79
2022/04/20 14:50:50;;;;;;;1.80;1.70;;;;;;;;;;4978746;28;20101;-78
2022/04/20 14:53:18;;;;;;;3.33;1.70;;;;;;;;;;4957011;28;20086;-78
2022/04/20 14:55:47;;;;;;;2.55;1.80;;;;;;;;;;4988851;28;20053;-78
2022/04/20 14:58:14;;;;;;;1.80;1.70;;;;;;;;;;4970540;28;20069;-79
2022/04/20 15:00:42;;;;;;;1.55;1.52;;;;;;;;;;4988712;28;20053;-78
2022/04/20 15:03:10;;;;;;;1.90;1.80;;;;;;;;;;5017806;28;20054;-78
2022/04/20 15:05:37;;;;;;;1.98;1.88;;;;;;;;;;5005022;28;20562;-78
2022/04/20 15:08:05;;;;;;;3.05;2.13;;;;;;;;;;4998278;28;20133;-78
2022/04/20 15:10:34;;;;;;;2.00;1.90;;;;;;;;;;4982188;28;20050;-79
2022/04/20 15:13:02;;;;;;;2.72;1.80;;;;;;;;;;5008891;28;20089;-78
2022/04/20 15:15:31;;;;;;;2.00;1.90;;;;;;;;;;5004391;28;20160;-78
2022/04/20 15:17:59;;;;;;;1.90;1.80;;;;;;;;;;5006315;28;20038;-77
2022/04/20 15:20:26;;;;;;;2.28;2.17;;;;;;;;;;5004027;28;20100;-79
2022/04/20 15:22:55;;;;;;;1.83;1.73;;;;;;;;;;4974710;28;20038;-79
2022/04/20 15:25:24;;;;;;;2.13;1.90;;;;;;;;;;4986529;28;20060;-79
2022/04/20 15:27:51;;;;;;;1.98;1.88;;;;;;;;;;4983194;28;20033;-78
2022/04/20 15:30:19;;;;;;;1.95;1.80;;;;;;;;;;4975990;28;20055;-78
2022/04/20 15:32:47;;;;;;;1.77;1.75;;;;;;;;;;4989554;28;20523;-78
2022/04/20 15:35:14;;;;;;;2.08;1.70;;;;;;;;;;4972173;28;20097;-79
2022/04/20 15:37:42;;;;;;;1.90;1.80;;;;;;;;;;4994431;28;20042;-79
2022/04/20 15:40:19;;;;;;;3.53;2.20;;;;;;;;;;4986639;28;20056;-78
2022/04/20 15:42:47;;;;;;;2.35;2.10;;;;;;;;;;4981420;28;20592;-78
2022/04/20 15:45:14;;;;;;;2.10;2.00;;;;;;;;;;4990171;28;20183;-78
2022/04/20 15:47:42;;;;;;;2.00;1.90;;;;;;;;;;4973447;28;20046;-78
2022/04/20 15:50:10;;;;;;;4.38;2.30;;;;;;;;;;4992079;28;20058;-78
2022/04/20 15:52:37;;;;;;;2.65;2.20;;;;;;;;;;4990853;28;20058;-78
2022/04/20 16:00:47;;;;;;;1.95;1.85;;;;;;;;;;4976706;28;20125;-77
2022/04/20 16:03:17;;;;;;;2.20;2.00;;;;;;;;;;4992475;28;20041;-79
2022/04/20 16:05:48;;;;;;;2.35;2.05;;;;;;;;;;5004642;28;20050;-77
2022/04/20 16:08:17;;;;;;;2.00;1.90;;;;;;;;;;4974270;28;20057;-78
2022/04/20 16:10:51;;;;;;;2.00;1.90;;;;;;;;;;4989210;28;20125;-78